Time;durP1;ratioP1;P1;durP2;ratioP2;P2;SDS_P1;SDS_P2;PMS_P1;PMS_P2;Temp;Humidity;BMP_temperature;BMP_pressure;BME280_temperature;BME280_humidity;BME280_pressure;Samples;Min_cycle;Max_cycle;Signal;HPM_P1;HPM_P2
2023/04/11 00:02:01;;;;;;;6.85;3.20;;;12.70;79.90;;;;;;4898801;29;20363;-76
2023/04/11 00:04:26;;;;;;;5.97;3.30;;;12.70;80.00;;;;;;4899323;29;20088;-79
2023/04/11 00:06:52;;;;;;;5.10;2.90;;;12.70;80.00;;;;;;4916000;29;20508;-78
2023/04/11 00:09:18;;;;;;;5.65;3.17;;;12.70;80.00;;;;;;4899262;29;20028;-80
2023/04/11 00:11:43;;;;;;;5.13;3.05;;;12.70;80.00;;;;;;4900339;29;20027;-78
2023/04/11 00:14:11;;;;;;;5.88;2.92;;;12.70;80.00;;;;;;4903143;29;20028;-80
2023/04/11 00:16:36;;;;;;;4.85;2.70;;;12.70;80.00;;;;;;4902777;29;20028;-80
2023/04/11 00:19:02;;;;;;;5.32;2.90;;;12.70;80.00;;;;;;4920005;29;20374;-79
2023/04/11 00:21:27;;;;;;;5.45;3.05;;;12.70;80.10;;;;;;4919671;29;20066;-79
2023/04/11 00:23:54;;;;;;;4.82;2.70;;;12.70;80.00;;;;;;4902965;29;20036;-80
2023/04/11 00:26:20;;;;;;;4.82;2.90;;;12.70;80.00;;;;;;4902744;29;20090;-80
2023/04/11 00:28:46;;;;;;;5.47;3.00;;;12.70;80.00;;;;;;4919649;29;20371;-81
2023/04/11 00:31:12;;;;;;;5.07;2.85;;;12.70;80.10;;;;;;4924486;29;20031;-80
2023/04/11 00:33:38;;;;;;;5.20;2.83;;;12.70;80.10;;;;;;4908643;29;20024;-80
2023/04/11 00:36:03;;;;;;;5.20;2.92;;;12.70;80.10;;;;;;4925026;29;20031;-81
2023/04/11 00:38:30;;;;;;;5.13;2.60;;;12.70;80.10;;;;;;4908620;29;20029;-80
2023/04/11 00:40:55;;;;;;;5.07;2.88;;;12.70;80.10;;;;;;4924427;29;20575;-81
2023/04/11 00:43:20;;;;;;;4.90;2.63;;;12.70;80.10;;;;;;4907606;29;20040;-80
2023/04/11 00:45:46;;;;;;;4.70;2.53;;;12.70;80.10;;;;;;4924178;29;20028;-80
2023/04/11 00:48:12;;;;;;;4.90;2.65;;;12.70;80.10;;;;;;4907199;29;20442;-80
2023/04/11 00:50:40;;;;;;;5.22;2.40;;;12.70;80.20;;;;;;4906423;29;20028;-79
2023/04/11 00:53:07;;;;;;;4.97;2.50;;;12.70;80.20;;;;;;4906296;29;20032;-80
2023/04/11 00:55:32;;;;;;;4.57;2.63;;;12.70;80.20;;;;;;4906393;29;20028;-80
2023/04/11 00:57:58;;;;;;;4.90;2.40;;;12.70;80.30;;;;;;4911792;29;20046;-80
2023/04/11 01:00:24;;;;;;;4.38;2.45;;;12.70;80.20;;;;;;4943928;29;20498;-80
2023/04/11 01:02:49;;;;;;;4.32;2.47;;;12.70;80.20;;;;;;4960946;29;20492;-80
2023/04/11 01:05:16;;;;;;;5.28;2.33;;;12.70;80.20;;;;;;4943829;29;20031;-80
2023/04/11 01:07:44;;;;;;;4.85;2.55;;;12.70;80.20;;;;;;4942945;29;20027;-80
2023/04/11 01:10:11;;;;;;;4.07;2.33;;;12.70;80.20;;;;;;4959033;29;20023;-80
2023/04/11 01:12:38;;;;;;;3.97;2.00;;;12.70;80.20;;;;;;4959201;29;20023;-81
2023/04/11 01:15:05;;;;;;;3.95;2.30;;;12.70;80.20;;;;;;4960411;29;20079;-80
2023/04/11 01:17:31;;;;;;;4.57;2.40;;;12.70;80.40;;;;;;4958908;29;20167;-81
2023/04/11 01:19:57;;;;;;;3.90;2.03;;;12.70;80.20;;;;;;4958285;29;20055;-80
2023/04/11 01:22:24;;;;;;;3.58;1.88;;;12.70;80.30;;;;;;4960243;28;20102;-81
2023/04/11 01:24:50;;;;;;;4.57;2.10;;;12.70;80.40;;;;;;4961729;29;20023;-81
2023/04/11 01:27:16;;;;;;;3.72;2.13;;;12.70;80.40;;;;;;4960551;29;20058;-80
2023/04/11 01:29:41;;;;;;;4.20;2.30;;;12.60;80.30;;;;;;4962129;29;20507;-81
2023/04/11 01:32:07;;;;;;;3.70;2.00;;;12.70;80.40;;;;;;4944055;29;20020;-80
2023/04/11 01:34:34;;;;;;;4.47;2.00;;;12.70;80.30;;;;;;4942948;29;20035;-79
2023/04/11 01:36:59;;;;;;;3.97;2.20;;;12.70;80.30;;;;;;4939474;29;20039;-80
2023/04/11 01:39:25;;;;;;;3.53;1.83;;;12.60;80.30;;;;;;4959839;29;20038;-80
2023/04/11 01:41:52;;;;;;;3.92;2.08;;;12.70;80.30;;;;;;4961390;29;20501;-81
2023/04/11 01:44:18;;;;;;;5.28;2.15;;;12.70;80.30;;;;;;4959457;29;20093;-80
2023/04/11 01:46:45;;;;;;;3.35;1.95;;;12.70;80.30;;;;;;4943155;29;20031;-81
2023/04/11 01:49:14;;;;;;;3.35;1.90;;;12.70;80.50;;;;;;4961062;29;20019;-80
2023/04/11 01:51:40;;;;;;;4.18;2.15;;;12.60;80.40;;;;;;4943062;29;20613;-80
2023/04/11 01:54:05;;;;;;;3.30;1.77;;;12.60;80.40;;;;;;4959417;29;20027;-80
2023/04/11 01:56:31;;;;;;;3.28;1.80;;;12.70;80.50;;;;;;4958857;29;20126;-81
2023/04/11 01:58:57;;;;;;;3.05;1.73;;;12.60;80.40;;;;;;4959940;29;20045;-80
2023/04/11 02:01:23;;;;;;;4.22;1.70;;;12.60;80.40;;;;;;4941836;29;20057;-80
2023/04/11 02:03:49;;;;;;;3.90;1.90;;;12.70;80.40;;;;;;4958420;29;20031;-80
2023/04/11 02:06:15;;;;;;;3.05;1.63;;;12.60;80.40;;;;;;4959258;29;20039;-80
2023/04/11 02:08:42;;;;;;;3.58;1.90;;;12.60;80.40;;;;;;4958350;29;20396;-81
2023/04/11 02:11:07;;;;;;;3.33;1.80;;;12.70;80.50;;;;;;4958867;29;20020;-80
2023/04/11 02:13:33;;;;;;;3.55;1.65;;;12.60;80.40;;;;;;4957503;29;20016;-81
2023/04/11 02:16:07;;;;;;;2.47;1.63;;;12.60;80.50;;;;;;4959247;29;20027;-80
2023/04/11 02:18:33;;;;;;;3.17;1.70;;;12.60;80.50;;;;;;4940655;29;20019;-80
2023/04/11 02:20:59;;;;;;;3.67;1.67;;;12.60;80.60;;;;;;4957269;29;20019;-80
2023/04/11 02:23:25;;;;;;;2.95;1.60;;;12.60;80.50;;;;;;4957909;29;20039;-80
2023/04/11 02:25:50;;;;;;;4.22;1.75;;;12.60;80.60;;;;;;4955954;29;20388;-78
2023/04/11 02:28:15;;;;;;;3.55;1.60;;;12.70;80.60;;;;;;4940422;29;20117;-80
2023/04/11 02:30:41;;;;;;;3.58;1.65;;;12.60;80.60;;;;;;4933699;29;20107;-80
2023/04/11 02:33:06;;;;;;;3.50;1.80;;;12.70;80.60;;;;;;4920742;29;20039;-80
2023/04/11 02:35:32;;;;;;;3.20;1.60;;;12.60;80.60;;;;;;4923302;29;20425;-80
2023/04/11 02:37:58;;;;;;;3.97;2.00;;;12.60;80.60;;;;;;4935248;29;20762;-78
2023/04/11 02:40:23;;;;;;;3.28;1.60;;;12.60;80.60;;;;;;4937499;29;20520;-80
2023/04/11 02:42:49;;;;;;;3.13;1.45;;;12.60;80.50;;;;;;4938158;29;20031;-80
2023/04/11 02:45:14;;;;;;;3.92;1.63;;;12.60;80.50;;;;;;4938161;29;20071;-80
2023/04/11 02:47:40;;;;;;;3.35;1.50;;;12.60;80.60;;;;;;4954919;29;20030;-79
2023/04/11 02:50:06;;;;;;;3.35;1.65;;;12.60;80.50;;;;;;4939095;29;20083;-78
2023/04/11 02:52:32;;;;;;;3.08;1.50;;;12.60;80.60;;;;;;4938145;29;20118;-79
2023/04/11 02:54:58;;;;;;;2.97;1.50;;;12.60;80.60;;;;;;4954031;29;20047;-80
2023/04/11 02:57:23;;;;;;;3.72;1.60;;;12.60;80.60;;;;;;4954973;29;20038;-79
2023/04/11 02:59:49;;;;;;;3.40;1.60;;;12.60;80.60;;;;;;4956422;29;20054;-80
2023/04/11 03:02:15;;;;;;;2.92;1.63;;;12.70;80.60;;;;;;4953955;29;20023;-80
2023/04/11 03:04:40;;;;;;;2.97;1.60;;;12.60;80.70;;;;;;4954022;29;20122;-80
2023/04/11 03:07:06;;;;;;;3.20;1.60;;;12.60;80.60;;;;;;4954792;29;20043;-80
2023/04/11 03:09:31;;;;;;;3.45;1.70;;;12.70;80.70;;;;;;4953845;29;20384;-80
2023/04/11 03:11:57;;;;;;;2.85;1.40;;;12.60;80.60;;;;;;4954529;29;20476;-80
2023/04/11 03:14:22;;;;;;;3.30;1.60;;;12.60;80.60;;;;;;4954535;29;20027;-80
2023/04/11 03:16:48;;;;;;;2.95;1.58;;;12.60;80.60;;;;;;4938722;29;20035;-80
2023/04/11 03:19:13;;;;;;;3.25;1.50;;;12.60;80.70;;;;;;4938576;29;20028;-81
2023/04/11 03:21:38;;;;;;;3.60;1.55;;;12.60;80.60;;;;;;4955429;29;20166;-80
2023/04/11 03:24:04;;;;;;;2.97;1.48;;;12.60;80.60;;;;;;4954805;29;20034;-80
2023/04/11 03:26:31;;;;;;;2.40;1.50;;;12.60;80.60;;;;;;4937710;29;20488;-80
2023/04/11 03:28:57;;;;;;;2.53;1.40;;;12.60;80.60;;;;;;4953657;29;20027;-80
2023/04/11 03:31:23;;;;;;;3.55;1.50;;;12.60;80.70;;;;;;4937454;29;20023;-80
2023/04/11 03:33:48;;;;;;;2.20;1.35;;;12.60;80.70;;;;;;4937695;29;20086;-80
2023/04/11 03:36:14;;;;;;;2.97;1.45;;;12.60;80.60;;;;;;4937480;29;20035;-78
2023/04/11 03:38:39;;;;;;;3.05;1.30;;;12.60;80.70;;;;;;4937480;29;20024;-80
2023/04/11 03:41:05;;;;;;;2.92;1.55;;;12.60;80.70;;;;;;4937277;29;20023;-80
2023/04/11 03:43:31;;;;;;;3.05;1.60;;;12.60;80.70;;;;;;4953437;29;20019;-80
2023/04/11 03:45:57;;;;;;;2.65;1.38;;;12.60;80.70;;;;;;4937337;29;20019;-80
2023/04/11 03:48:28;;;;;;;2.17;1.40;;;12.60;80.70;;;;;;4953204;29;20115;-79
2023/04/11 03:50:54;;;;;;;2.92;1.30;;;12.60;80.70;;;;;;4954397;29;20019;-80
2023/04/11 03:53:19;;;;;;;2.58;1.40;;;12.60;80.70;;;;;;4937306;29;20028;-80
2023/04/11 03:55:45;;;;;;;2.70;1.40;;;12.60;80.70;;;;;;4952956;29;20027;-80
2023/04/11 03:58:10;;;;;;;3.05;1.50;;;12.60;80.70;;;;;;4954182;29;20057;-80
2023/04/11 04:00:36;;;;;;;2.45;1.40;;;12.60;80.70;;;;;;4954242;29;20038;-80
2023/04/11 04:03:01;;;;;;;2.25;1.40;;;12.60;80.70;;;;;;4953184;29;20035;-80
2023/04/11 04:05:27;;;;;;;3.30;1.50;;;12.60;80.70;;;;;;4960545;29;20035;-82
2023/04/11 04:07:52;;;;;;;3.47;1.40;;;12.60;80.70;;;;;;4958849;29;20027;-81
2023/04/11 04:10:18;;;;;;;3.72;1.63;;;12.60;80.70;;;;;;4959073;29;20030;-80
2023/04/11 04:12:43;;;;;;;2.53;1.48;;;12.60;80.70;;;;;;4958779;29;20027;-80
2023/04/11 04:15:10;;;;;;;2.20;1.20;;;12.60;80.70;;;;;;4958463;29;20023;-81
2023/04/11 04:17:35;;;;;;;2.95;1.42;;;12.60;80.70;;;;;;4942559;29;20027;-81
2023/04/11 04:20:01;;;;;;;2.40;1.23;;;12.60;80.70;;;;;;4954320;29;20034;-81
2023/04/11 04:22:28;;;;;;;2.40;1.33;;;12.60;80.70;;;;;;4953298;29;20027;-79
2023/04/11 04:24:56;;;;;;;2.97;1.50;;;12.60;80.70;;;;;;4942392;29;20098;-78
2023/04/11 04:27:23;;;;;;;3.55;1.55;;;12.60;80.70;;;;;;4915736;29;20042;-80
2023/04/11 04:29:51;;;;;;;3.25;1.42;;;12.60;80.80;;;;;;4903572;29;20028;-80
2023/04/11 04:32:21;;;;;;;2.53;1.40;;;12.60;80.80;;;;;;4914543;29;20366;-78
2023/04/11 04:34:48;;;;;;;4.38;1.77;;;12.60;80.80;;;;;;4917083;29;20103;-77
2023/04/11 04:37:21;;;;;;;2.70;1.52;;;12.60;80.80;;;;;;4898193;29;20039;-80
2023/04/11 04:39:54;;;;;;;2.22;1.23;;;12.60;80.80;;;;;;4897555;29;20100;-79
2023/04/11 04:42:23;;;;;;;3.70;1.42;;;12.60;80.80;;;;;;4898394;29;20038;-80
2023/04/11 04:44:49;;;;;;;2.55;1.30;;;12.60;80.80;;;;;;4905323;29;20035;-80
2023/04/11 04:47:16;;;;;;;2.58;1.33;;;12.60;80.80;;;;;;4931403;29;20036;-81
2023/04/11 04:49:45;;;;;;;2.90;1.40;;;12.60;80.80;;;;;;4916640;29;20133;-80
2023/04/11 04:52:12;;;;;;;3.65;1.63;;;12.50;80.80;;;;;;4916077;29;20054;-80
2023/04/11 04:54:38;;;;;;;2.28;1.20;;;12.60;80.80;;;;;;4916173;29;20020;-80
2023/04/11 04:57:05;;;;;;;3.10;1.40;;;12.50;80.80;;;;;;4919660;29;20043;-78
2023/04/11 04:59:30;;;;;;;3.22;1.45;;;12.60;80.80;;;;;;4917795;29;20028;-79
2023/04/11 05:01:56;;;;;;;3.10;1.30;;;12.60;80.90;;;;;;4918187;29;20107;-77
2023/04/11 05:04:22;;;;;;;2.83;1.27;;;12.60;80.90;;;;;;4932465;29;20082;-76
2023/04/11 05:06:47;;;;;;;2.13;1.17;;;12.60;80.90;;;;;;4933406;29;20040;-76
2023/04/11 05:09:13;;;;;;;2.28;1.30;;;12.60;80.90;;;;;;4933517;29;20120;-80
2023/04/11 05:11:39;;;;;;;2.20;1.15;;;12.60;80.90;;;;;;4923554;29;20023;-80
2023/04/11 05:14:04;;;;;;;2.28;1.27;;;12.60;80.80;;;;;;4936987;29;20436;-80
2023/04/11 05:16:30;;;;;;;2.85;1.48;;;12.60;80.90;;;;;;4953607;29;20102;-80
2023/04/11 05:18:56;;;;;;;2.40;1.23;;;12.60;80.90;;;;;;4939344;29;20027;-81
2023/04/11 05:21:21;;;;;;;2.35;1.20;;;12.60;80.90;;;;;;4939138;29;20362;-81
2023/04/11 05:23:47;;;;;;;2.97;1.45;;;12.60;80.90;;;;;;4938939;29;20108;-79
2023/04/11 05:26:13;;;;;;;1.75;1.20;;;12.60;80.90;;;;;;4938982;29;20040;-81
2023/04/11 05:28:38;;;;;;;3.47;1.30;;;12.60;81.00;;;;;;4937514;29;20027;-79
2023/04/11 05:31:04;;;;;;;2.53;1.20;;;12.60;80.90;;;;;;4923883;29;20056;-82
2023/04/11 05:33:30;;;;;;;2.42;1.17;;;12.60;80.90;;;;;;4901092;29;20028;-82
2023/04/11 05:35:55;;;;;;;3.92;1.77;;;12.60;81.00;;;;;;4900083;29;20031;-81
2023/04/11 05:38:21;;;;;;;2.90;1.30;;;12.60;81.00;;;;;;4918755;29;20115;-80
2023/04/11 05:40:46;;;;;;;3.38;1.40;;;12.60;80.90;;;;;;4901580;29;20040;-80
2023/04/11 05:43:13;;;;;;;2.42;1.20;;;12.60;81.00;;;;;;4909110;29;20031;-82
2023/04/11 05:45:49;;;;;;;2.53;1.30;;;12.50;80.90;;;;;;4937502;29;20057;-82
2023/04/11 05:48:17;;;;;;;2.80;1.30;;;12.60;80.90;;;;;;4953171;29;20035;-82
2023/04/11 05:50:43;;;;;;;3.03;1.30;;;12.60;80.90;;;;;;4933864;29;20118;-79
2023/04/11 05:53:08;;;;;;;2.75;1.25;;;12.60;80.90;;;;;;4934524;29;20062;-81
2023/04/11 05:55:34;;;;;;;3.03;1.30;;;12.60;80.90;;;;;;4934262;29;20027;-79
2023/04/11 05:57:59;;;;;;;3.13;1.40;;;12.50;80.80;;;;;;4951467;29;20066;-79
2023/04/11 06:00:29;;;;;;;2.13;1.20;;;12.60;80.90;;;;;;4935053;29;20038;-83
2023/04/11 06:02:55;;;;;;;3.10;1.50;;;12.60;80.90;;;;;;4935251;29;20031;-80
2023/04/11 06:05:20;;;;;;;3.17;1.40;;;12.60;80.90;;;;;;4934990;29;20053;-80
2023/04/11 06:07:46;;;;;;;2.65;1.35;;;12.50;80.80;;;;;;4951958;29;20399;-80
2023/04/11 06:10:12;;;;;;;2.63;1.35;;;12.60;80.80;;;;;;4932980;29;20027;-79
2023/04/11 06:12:37;;;;;;;2.25;1.30;;;12.60;80.90;;;;;;4934641;29;20027;-80
2023/04/11 06:15:03;;;;;;;3.47;1.40;;;12.60;80.80;;;;;;4937048;29;20058;-80
2023/04/11 06:17:28;;;;;;;2.60;1.20;;;12.60;80.80;;;;;;4955392;28;20090;-81
2023/04/11 06:19:54;;;;;;;2.33;1.20;;;12.60;80.80;;;;;;4955171;29;20109;-81
2023/04/11 06:22:19;;;;;;;1.77;1.10;;;12.60;80.80;;;;;;4938151;29;20031;-81
2023/04/11 06:24:46;;;;;;;3.35;1.27;;;12.60;80.90;;;;;;4938201;29;20034;-81
2023/04/11 06:27:12;;;;;;;2.47;1.10;;;12.60;80.80;;;;;;4937564;29;20027;-81
2023/04/11 06:29:38;;;;;;;2.67;1.33;;;12.60;80.80;;;;;;4938073;29;20480;-81
2023/04/11 06:32:04;;;;;;;2.80;1.38;;;12.60;80.80;;;;;;4938296;29;20070;-81
2023/04/11 06:34:30;;;;;;;2.40;1.17;;;12.60;80.80;;;;;;4938778;29;20114;-81
2023/04/11 06:36:56;;;;;;;2.70;1.20;;;12.60;80.80;;;;;;4954795;29;20063;-80
2023/04/11 06:39:21;;;;;;;2.53;1.20;;;12.60;80.80;;;;;;4955055;29;20106;-81
2023/04/11 06:41:47;;;;;;;2.90;1.42;;;12.60;80.80;;;;;;4955008;29;20035;-81
2023/04/11 06:44:13;;;;;;;2.15;1.10;;;12.60;80.80;;;;;;4937539;29;20583;-81
2023/04/11 06:46:38;;;;;;;2.03;1.10;;;12.50;80.80;;;;;;4938046;29;20090;-81
2023/04/11 06:49:06;;;;;;;1.92;1.17;;;12.60;80.90;;;;;;4955046;29;20110;-81
2023/04/11 06:51:35;;;;;;;2.40;1.20;;;12.60;80.90;;;;;;4937611;29;20190;-80
2023/04/11 06:54:01;;;;;;;3.05;1.35;;;12.60;80.90;;;;;;4954673;29;20027;-81
2023/04/11 06:56:27;;;;;;;1.77;1.10;;;12.60;80.90;;;;;;4937493;29;20373;-81
2023/04/11 06:58:52;;;;;;;2.95;1.13;;;12.50;80.80;;;;;;4954364;29;20038;-82
2023/04/11 07:01:19;;;;;;;2.72;1.15;;;12.60;80.90;;;;;;4937944;29;20034;-81
2023/04/11 07:03:48;;;;;;;2.25;1.15;;;12.50;80.80;;;;;;4954469;29;20024;-81
2023/04/11 07:06:14;;;;;;;2.72;1.20;;;12.60;80.90;;;;;;4937258;29;20027;-81
2023/04/11 07:08:40;;;;;;;2.22;1.10;;;12.50;80.80;;;;;;4937107;29;20033;-82
2023/04/11 07:11:06;;;;;;;3.00;1.30;;;12.60;80.80;;;;;;4937339;29;20050;-81
2023/04/11 07:13:32;;;;;;;2.33;1.23;;;12.60;80.80;;;;;;4937286;29;20567;-81
2023/04/11 07:15:57;;;;;;;2.22;1.23;;;12.60;80.80;;;;;;4954178;29;20024;-81
2023/04/11 07:18:24;;;;;;;2.75;1.10;;;12.60;80.80;;;;;;4955283;29;20034;-82
2023/04/11 07:20:51;;;;;;;2.15;1.05;;;12.60;80.70;;;;;;4954024;28;20028;-82
2023/04/11 07:23:17;;;;;;;3.35;1.48;;;12.60;80.70;;;;;;4937386;29;20054;-81
2023/04/11 07:25:43;;;;;;;2.47;1.10;;;12.50;80.70;;;;;;4954708;29;20059;-81
2023/04/11 07:28:10;;;;;;;3.15;1.10;;;12.60;80.80;;;;;;4936759;29;20027;-81
2023/04/11 07:30:36;;;;;;;2.47;1.13;;;12.60;80.70;;;;;;4936711;29;20488;-81
2023/04/11 07:33:02;;;;;;;2.83;1.45;;;12.60;80.80;;;;;;4936904;29;20034;-81
2023/04/11 07:35:28;;;;;;;2.38;1.10;;;12.60;80.70;;;;;;4937893;29;20035;-83
2023/04/11 07:37:56;;;;;;;2.10;1.00;;;12.60;80.70;;;;;;4942998;29;20507;-83
2023/04/11 07:40:21;;;;;;;2.22;1.10;;;12.70;80.60;;;;;;4959427;29;20027;-83
2023/04/11 07:42:47;;;;;;;1.98;0.95;;;12.70;80.60;;;;;;4958939;29;20037;-83
2023/04/11 07:45:12;;;;;;;2.33;1.00;;;12.70;80.40;;;;;;4942528;29;20404;-83
2023/04/11 07:47:38;;;;;;;2.78;1.10;;;12.70;80.30;;;;;;4941294;29;20067;-81
2023/04/11 07:50:04;;;;;;;2.20;1.10;;;12.70;80.20;;;;;;4941820;29;20020;-82
2023/04/11 07:52:29;;;;;;;2.00;1.00;;;12.80;80.20;;;;;;4942139;29;20023;-82
2023/04/11 07:54:55;;;;;;;2.42;1.23;;;12.80;80.10;;;;;;4941596;29;20429;-83
2023/04/11 07:57:20;;;;;;;2.80;1.05;;;12.80;80.00;;;;;;4940386;29;20038;-81
2023/04/11 07:59:46;;;;;;;2.60;1.05;;;12.90;79.90;;;;;;4958022;29;20452;-83
2023/04/11 08:02:12;;;;;;;2.10;1.20;;;12.90;79.80;;;;;;4940510;29;20031;-82
2023/04/11 08:04:37;;;;;;;1.98;0.90;;;12.90;79.80;;;;;;4940793;29;20117;-82
2023/04/11 08:07:03;;;;;;;1.55;1.00;;;12.90;79.80;;;;;;4958006;29;20027;-82
2023/04/11 08:09:29;;;;;;;2.15;0.98;;;12.90;79.80;;;;;;4940509;29;20035;-82
2023/04/11 08:11:55;;;;;;;1.92;1.00;;;12.90;79.90;;;;;;4940147;29;20090;-81
2023/04/11 08:14:22;;;;;;;2.05;0.90;;;12.90;79.90;;;;;;4940429;29;20074;-82
2023/04/11 08:16:47;;;;;;;2.10;1.05;;;12.80;79.80;;;;;;4939689;29;20031;-81
2023/04/11 08:19:13;;;;;;;2.65;1.10;;;12.90;79.90;;;;;;4939467;29;20401;-82
2023/04/11 08:21:38;;;;;;;2.38;1.00;;;12.90;79.90;;;;;;4939242;29;20050;-81
2023/04/11 08:24:04;;;;;;;2.30;1.10;;;12.90;79.80;;;;;;4953925;29;20027;-82
2023/04/11 08:26:30;;;;;;;1.48;1.02;;;12.90;79.60;;;;;;4938633;29;20028;-82
2023/04/11 08:28:55;;;;;;;2.10;0.90;;;13.00;79.60;;;;;;4940994;29;20031;-83
2023/04/11 08:31:21;;;;;;;1.67;1.08;;;13.00;79.90;;;;;;4942514;28;20072;-82
2023/04/11 08:33:47;;;;;;;2.78;1.20;;;13.00;79.10;;;;;;4944609;29;20392;-83
2023/04/11 08:36:12;;;;;;;1.95;1.00;;;13.10;79.10;;;;;;4962759;29;20035;-82
2023/04/11 08:38:39;;;;;;;2.25;0.98;;;13.10;78.90;;;;;;4945252;29;20027;-82
2023/04/11 08:41:05;;;;;;;1.92;0.95;;;13.20;78.70;;;;;;4945132;29;20023;-82
2023/04/11 08:43:34;;;;;;;2.03;1.13;;;13.20;78.60;;;;;;4944763;29;20050;-82
2023/04/11 08:46:02;;;;;;;2.13;1.10;;;13.20;78.50;;;;;;4944834;29;20027;-81
2023/04/11 08:48:28;;;;;;;1.83;1.02;;;13.20;78.50;;;;;;4961800;29;20023;-82
2023/04/11 08:50:54;;;;;;;1.73;0.82;;;13.20;78.50;;;;;;4943981;29;20027;-82
2023/04/11 08:53:23;;;;;;;1.75;0.90;;;13.20;78.60;;;;;;4943953;29;20054;-82
2023/04/11 08:55:49;;;;;;;2.35;1.10;;;13.20;78.90;;;;;;4944067;29;20027;-82
2023/04/11 08:58:15;;;;;;;1.52;0.98;;;13.10;78.90;;;;;;4960741;29;20031;-81
2023/04/11 09:00:41;;;;;;;1.50;0.73;;;13.20;78.90;;;;;;4964598;23;20050;-85
2023/04/11 09:03:08;;;;;;;2.72;1.00;;;13.10;78.80;;;;;;4939469;29;20050;-83
2023/04/11 09:05:39;;;;;;;2.53;0.93;;;13.30;78.60;;;;;;4939345;29;20027;-84
2023/04/11 09:08:11;;;;;;;1.83;0.90;;;13.30;78.50;;;;;;4939390;29;20444;-84
2023/04/11 09:10:43;;;;;;;2.10;1.05;;;13.40;78.20;;;;;;4939125;29;20272;-83
2023/04/11 09:13:20;;;;;;;3.35;1.20;;;13.40;78.00;;;;;;4956615;29;20058;-83
2023/04/11 09:15:46;;;;;;;1.80;1.08;;;13.40;78.00;;;;;;4939442;29;20054;-84
2023/04/11 09:18:33;;;;;;;2.35;1.00;;;13.40;77.90;;;;;;4939122;29;20031;-83
2023/04/11 09:21:03;;;;;;;2.65;1.08;;;13.50;77.90;;;;;;4938785;29;20118;-84
2023/04/11 09:23:29;;;;;;;1.50;1.00;;;13.50;77.90;;;;;;4939170;29;20032;-85
2023/04/11 09:25:55;;;;;;;2.55;1.08;;;13.50;77.90;;;;;;4956168;29;20029;-84
2023/04/11 09:28:21;;;;;;;2.38;1.20;;;13.50;77.80;;;;;;4939158;29;20023;-84
2023/04/11 09:30:51;;;;;;;2.20;0.93;;;13.50;77.80;;;;;;4938771;29;20078;-83
2023/04/11 09:33:20;;;;;;;1.38;0.90;;;13.60;77.90;;;;;;4938962;29;20023;-83
2023/04/11 09:35:51;;;;;;;2.38;1.00;;;13.60;77.80;;;;;;4939037;29;20094;-83
2023/04/11 09:38:32;;;;;;;2.83;0.88;;;13.60;77.80;;;;;;4939061;29;20024;-83
2023/04/11 09:41:00;;;;;;;2.25;0.90;;;13.60;78.30;;;;;;4955633;29;20504;-84
2023/04/11 09:43:25;;;;;;;1.48;0.80;;;13.50;77.80;;;;;;4938464;29;20481;-84
2023/04/11 09:46:10;;;;;;;1.75;0.90;;;13.50;77.90;;;;;;4955835;29;20031;-85
2023/04/11 09:48:37;;;;;;;2.83;1.10;;;13.60;77.90;;;;;;4955929;29;20059;-86
2023/04/11 09:51:06;;;;;;;2.85;0.90;;;13.50;77.80;;;;;;4938518;29;20034;-84
2023/04/11 09:53:34;;;;;;;1.50;0.90;;;13.60;77.80;;;;;;4938468;29;20035;-84
2023/04/11 09:56:00;;;;;;;1.63;0.90;;;13.60;77.80;;;;;;4938432;29;20031;-84
2023/04/11 09:58:33;;;;;;;1.95;0.75;;;13.70;77.80;;;;;;4938235;29;20038;-83
2023/04/11 10:00:59;;;;;;;2.22;0.98;;;13.70;77.70;;;;;;4955268;29;20031;-84
2023/04/11 10:03:25;;;;;;;2.20;0.82;;;13.70;78.10;;;;;;4938428;29;20090;-83
2023/04/11 10:05:55;;;;;;;2.13;0.90;;;13.70;77.60;;;;;;4955639;29;20102;-83
2023/04/11 10:08:35;;;;;;;1.85;0.80;;;13.80;77.50;;;;;;4938518;29;20027;-84
2023/04/11 10:11:03;;;;;;;1.45;0.90;;;13.80;77.50;;;;;;4938162;29;20023;-84
2023/04/11 10:13:41;;;;;;;2.35;0.95;;;13.80;77.40;;;;;;4938213;29;20035;-84
2023/04/11 10:16:12;;;;;;;2.17;1.00;;;13.80;77.40;;;;;;4938210;29;20023;-84
2023/04/11 10:18:52;;;;;;;2.30;0.88;;;13.80;77.90;;;;;;4938263;29;20047;-84
2023/04/11 10:21:31;;;;;;;2.05;0.90;;;13.90;77.40;;;;;;4937944;29;20126;-84
2023/04/11 10:24:19;;;;;;;3.05;1.10;;;13.90;77.40;;;;;;4937954;29;20095;-86
2023/04/11 10:26:50;;;;;;;2.53;0.82;;;13.90;77.30;;;;;;4955056;29;20034;-83
2023/04/11 10:29:32;;;;;;;3.22;1.00;;;13.90;77.30;;;;;;4955130;29;20026;-84
2023/04/11 10:32:16;;;;;;;1.45;0.85;;;13.90;77.40;;;;;;4937469;29;20034;-83
2023/04/11 10:34:50;;;;;;;1.73;0.85;;;13.90;77.40;;;;;;4937770;29;20023;-84
2023/04/11 10:37:18;;;;;;;1.42;0.70;;;13.90;77.40;;;;;;4937798;29;20492;-83
2023/04/11 10:39:52;;;;;;;1.67;0.90;;;13.90;77.40;;;;;;4937757;29;20031;-83
2023/04/11 10:42:28;;;;;;;2.28;0.80;;;13.90;77.40;;;;;;4937578;29;20051;-84
2023/04/11 10:45:31;;;;;;;1.27;0.85;;;13.90;77.30;;;;;;4937688;29;20056;-85
2023/04/11 10:48:11;;;;;;;2.70;1.05;;;13.90;77.30;;;;;;4937455;29;20504;-84
2023/04/11 10:50:43;;;;;;;1.20;0.70;;;13.90;77.70;;;;;;4954346;29;20110;-84
2023/04/11 10:53:32;;;;;;;2.00;0.90;;;14.00;77.20;;;;;;4937570;29;20039;-84
2023/04/11 10:55:59;;;;;;;1.70;0.85;;;14.00;77.30;;;;;;4936916;29;20045;-84
2023/04/11 10:58:38;;;;;;;1.40;0.75;;;14.00;77.20;;;;;;4937121;29;20492;-85
2023/04/11 11:01:17;;;;;;;2.35;1.00;;;14.00;77.30;;;;;;4937035;29;20045;-84
2023/04/11 11:03:51;;;;;;;2.08;0.90;;;14.00;77.30;;;;;;4954351;29;20027;-84
2023/04/11 11:06:17;;;;;;;1.27;0.80;;;14.00;77.30;;;;;;4954579;29;20556;-85
2023/04/11 11:08:45;;;;;;;2.15;0.73;;;14.00;77.20;;;;;;4937033;29;20142;-85
2023/04/11 11:11:11;;;;;;;1.20;0.63;;;14.00;77.20;;;;;;4954101;29;20026;-83
2023/04/11 11:13:46;;;;;;;1.30;0.70;;;14.10;77.20;;;;;;4954210;29;20023;-83
2023/04/11 11:16:14;;;;;;;2.13;1.05;;;14.10;77.20;;;;;;4937066;29;20030;-83
2023/04/11 11:18:44;;;;;;;1.35;0.70;;;14.10;77.10;;;;;;4937099;29;20039;-84
2023/04/11 11:21:09;;;;;;;0.75;0.60;;;14.10;77.10;;;;;;4936925;29;20187;-83
2023/04/11 11:23:35;;;;;;;2.00;0.90;;;14.10;77.00;;;;;;4937023;29;20114;-84
2023/04/11 11:26:01;;;;;;;1.10;0.60;;;14.10;77.10;;;;;;4954487;29;20020;-84
2023/04/11 11:28:26;;;;;;;1.95;0.65;;;14.10;77.10;;;;;;4954161;29;20453;-83
2023/04/11 11:30:54;;;;;;;1.95;0.68;;;14.10;77.00;;;;;;4936756;29;20385;-84
2023/04/11 11:33:25;;;;;;;1.77;0.63;;;14.10;77.10;;;;;;4954048;29;20031;-84
2023/04/11 11:35:56;;;;;;;1.48;0.70;;;14.10;77.10;;;;;;4936947;29;20404;-83
2023/04/11 11:38:27;;;;;;;2.53;0.80;;;14.10;77.10;;;;;;4937037;29;20031;-84
2023/04/11 11:40:53;;;;;;;;;;;14.10;77.10;;;;;;4954207;29;20318;-84
2023/04/11 11:43:19;;;;;;;1.65;0.60;;;14.10;77.10;;;;;;4936805;29;19910;-84
2023/04/11 11:45:45;;;;;;;2.25;0.80;;;14.00;77.10;;;;;;4953756;29;20027;-82
2023/04/11 11:48:23;;;;;;;1.52;0.60;;;14.00;77.30;;;;;;4936716;29;20039;-84
2023/04/11 11:50:56;;;;;;;1.50;0.82;;;13.90;77.40;;;;;;4936313;29;20079;-84
2023/04/11 11:53:22;;;;;;;1.02;0.60;;;13.90;77.60;;;;;;4953793;29;20016;-84
2023/04/11 11:55:48;;;;;;;2.45;0.77;;;13.90;77.70;;;;;;4953706;29;20571;-83
2023/04/11 11:58:14;;;;;;;1.08;0.60;;;13.90;77.90;;;;;;4936270;29;20078;-84
2023/04/11 12:00:40;;;;;;;2.97;0.90;;;13.80;77.90;;;;;;4936135;29;20046;-83
2023/04/11 12:03:08;;;;;;;2.60;0.75;;;13.80;77.90;;;;;;4936683;29;20031;-83
2023/04/11 12:05:34;;;;;;;1.90;0.70;;;13.80;78.00;;;;;;4953712;29;20026;-84
2023/04/11 12:08:03;;;;;;;0.70;0.50;;;13.80;77.90;;;;;;4940187;29;20034;-83
2023/04/11 12:10:55;;;;;;;0.95;0.60;;;13.90;77.80;;;;;;4940188;29;20289;-83
2023/04/11 12:13:24;;;;;;;1.48;0.77;;;13.90;77.60;;;;;;4937622;29;20027;-82
2023/04/11 12:16:00;;;;;;;1.27;0.80;;;13.90;78.10;;;;;;4940437;29;20054;-84
2023/04/11 12:18:27;;;;;;;1.48;0.73;;;13.90;77.50;;;;;;4940531;29;20030;-83
2023/04/11 12:20:53;;;;;;;1.38;0.65;;;13.90;77.40;;;;;;4957068;29;20039;-84
2023/04/11 12:23:18;;;;;;;1.27;0.65;;;13.90;77.50;;;;;;4940247;29;20404;-84
2023/04/11 12:25:45;;;;;;;1.67;0.70;;;13.90;77.40;;;;;;4940061;29;20059;-82
2023/04/11 12:28:11;;;;;;;0.95;0.50;;;13.90;77.50;;;;;;4940179;29;20061;-83
2023/04/11 12:30:36;;;;;;;2.00;0.98;;;13.90;77.50;;;;;;4939802;29;20016;-83
2023/04/11 12:33:02;;;;;;;1.30;0.70;;;13.90;77.50;;;;;;4940160;29;20050;-84
2023/04/11 12:35:28;;;;;;;2.17;0.75;;;13.90;77.60;;;;;;4940124;29;20391;-82
2023/04/11 12:37:54;;;;;;;1.60;0.70;;;13.90;77.60;;;;;;4940121;29;20031;-83
2023/04/11 12:40:20;;;;;;;1.30;0.70;;;13.90;77.60;;;;;;4939719;29;20515;-84
2023/04/11 12:42:47;;;;;;;1.42;0.77;;;13.80;77.60;;;;;;4939922;29;20113;-84
2023/04/11 12:45:14;;;;;;;1.48;0.73;;;13.80;77.70;;;;;;4939883;29;20038;-83
2023/04/11 12:47:40;;;;;;;2.60;0.60;;;13.80;77.80;;;;;;4939707;29;20118;-83
2023/04/11 12:50:06;;;;;;;1.10;0.57;;;13.80;77.80;;;;;;4939801;29;20082;-81